createdAt,value
2019-06-15T00:02:03.665Z,72.09
2019-06-15T00:05:12.492Z,72.01
2019-06-15T00:08:21.114Z,72.53
2019-06-15T00:11:29.815Z,72.45
2019-06-15T00:14:38.441Z,72.20
2019-06-15T00:17:56.355Z,71.83
2019-06-15T00:21:03.590Z,71.63
2019-06-15T00:24:12.407Z,72.64
2019-06-15T00:27:21.009Z,72.34
2019-06-15T00:30:29.661Z,72.68
2019-06-15T00:33:38.654Z,72.45
2019-06-15T00:36:47.254Z,72.97
2019-06-15T00:39:55.972Z,72.63
2019-06-15T00:43:04.624Z,72.50
2019-06-15T00:46:13.414Z,72.08
2019-06-15T00:49:22.060Z,71.65
2019-06-15T00:52:30.747Z,71.61
2019-06-15T00:55:39.869Z,71.70
2019-06-15T00:58:48.487Z,72.18
2019-06-15T01:01:57.115Z,71.79
2019-06-15T01:05:06.601Z,71.38
2019-06-15T01:08:15.687Z,71.13
2019-06-15T01:11:24.666Z,71.46
2019-06-15T01:14:34.084Z,71.38
2019-06-15T01:17:43.928Z,71.58
2019-06-15T01:21:01.975Z,71.71
2019-06-15T01:24:11.006Z,71.26
2019-06-15T01:27:20.143Z,70.55
2019-06-15T01:30:28.760Z,70.45
2019-06-15T01:33:46.702Z,70.21
2019-06-15T01:36:55.424Z,70.74
2019-06-15T01:40:04.406Z,70.67
2019-06-15T01:43:26.278Z,70.98
2019-06-15T01:46:44.339Z,70.68
2019-06-15T01:49:53.168Z,70.56
2019-06-15T01:53:01.898Z,70.03
2019-06-15T01:56:11.945Z,70.22
2019-06-15T01:59:20.620Z,69.74
2019-06-15T02:02:29.382Z,69.88
2019-06-15T02:05:38.856Z,69.81
2019-06-15T02:08:56.975Z,69.78
2019-06-15T02:12:05.803Z,69.76
2019-06-15T02:15:15.633Z,69.87
2019-06-15T02:18:26.072Z,70.43
2019-06-15T02:21:34.823Z,70.67
2019-06-15T02:24:43.558Z,70.66
2019-06-15T02:27:52.704Z,70.36
2019-06-15T02:31:00.054Z,70.27
2019-06-15T02:34:08.784Z,69.99
2019-06-15T02:37:17.527Z,70.61
2019-06-15T02:40:26.314Z,70.19
2019-06-15T02:43:35.325Z,70.78
2019-06-15T02:46:44.032Z,70.61
2019-06-15T02:49:52.889Z,70.74
2019-06-15T02:53:01.705Z,70.69
2019-06-15T02:56:10.380Z,70.71
2019-06-15T02:59:19.209Z,70.64
2019-06-15T03:02:28.967Z,70.48
2019-06-15T03:05:38.201Z,69.92
2019-06-15T03:08:46.970Z,70.41
2019-06-15T03:11:55.863Z,70.79
2019-06-15T03:15:05.095Z,71.14
2019-06-15T03:18:14.907Z,71.05
2019-06-15T03:21:23.587Z,71.11
2019-06-15T03:24:32.281Z,70.89
2019-06-15T03:27:41.133Z,71.29
2019-06-15T03:30:49.801Z,71.52
2019-06-15T03:33:59.010Z,71.87
2019-06-15T03:37:08.202Z,72.43
2019-06-15T03:40:18.361Z,72.20
2019-06-15T03:43:27.246Z,71.18
2019-06-15T03:46:35.869Z,70.61
2019-06-15T03:49:44.841Z,71.07
2019-06-15T03:52:53.564Z,71.01
2019-06-15T03:56:02.405Z,71.63
2019-06-15T03:59:11.145Z,72.60
2019-06-15T04:02:20.075Z,73.93
2019-06-15T04:05:29.665Z,75.04
2019-06-15T04:08:38.311Z,75.93
2019-06-15T04:11:57.818Z,78.55
2019-06-15T04:15:06.720Z,79.84
2019-06-15T04:18:25.035Z,81.36
2019-06-15T04:21:33.688Z,81.48
2019-06-15T04:24:42.443Z,81.68
2019-06-15T04:27:51.363Z,81.22
2019-06-15T04:31:00.084Z,81.66
2019-06-15T04:34:08.689Z,82.55
2019-06-15T04:37:17.414Z,82.57
2019-06-15T04:40:26.402Z,83.15
2019-06-15T04:43:35.219Z,83.92
2019-06-15T04:46:43.915Z,84.01
2019-06-15T04:49:52.495Z,83.89
2019-06-15T04:53:01.171Z,83.90
2019-06-15T04:56:09.853Z,83.46
2019-06-15T04:59:18.543Z,84.97
2019-06-15T05:02:27.586Z,85.09
2019-06-15T05:05:37.293Z,85.91
2019-06-15T05:08:55.409Z,85.82
2019-06-15T05:12:03.056Z,86.30
2019-06-15T05:15:12.209Z,86.11
2019-06-15T05:18:21.033Z,86.59
2019-06-15T05:21:29.808Z,87.08
2019-06-15T05:24:38.527Z,87.04
2019-06-15T05:27:47.417Z,86.40
2019-06-15T05:30:56.338Z,87.44
2019-06-15T05:34:04.964Z,87.63
2019-06-15T05:37:13.634Z,87.62
2019-06-15T05:40:22.888Z,88.13
2019-06-15T05:43:31.966Z,88.52
2019-06-15T05:46:40.605Z,88.59
2019-06-15T05:49:49.325Z,88.90
2019-06-15T05:52:57.986Z,88.85
2019-06-15T05:56:06.861Z,88.98
2019-06-15T05:59:15.531Z,88.79
2019-06-15T06:02:24.928Z,89.44
2019-06-15T06:05:33.636Z,89.63
2019-06-15T06:08:42.260Z,89.42
2019-06-15T06:11:51.158Z,89.93
2019-06-15T06:14:59.932Z,89.89
2019-06-15T06:18:08.579Z,90.51
2019-06-15T06:21:17.236Z,89.95
2019-06-15T06:24:25.907Z,89.14
2019-06-15T06:27:36.824Z,88.42
2019-06-15T06:30:45.182Z,88.37
2019-06-15T06:33:54.352Z,88.58
2019-06-15T06:37:02.973Z,87.28
2019-06-15T06:40:12.542Z,86.46
2019-06-15T06:43:30.457Z,85.71
2019-06-15T06:46:39.286Z,85.61
2019-06-15T06:49:48.013Z,85.40
2019-06-15T06:52:56.784Z,85.42
2019-06-15T06:56:05.507Z,85.89
2019-06-15T06:59:14.207Z,86.42
2019-06-15T07:02:22.946Z,86.62
2019-06-15T07:05:31.753Z,85.00
2019-06-15T07:08:40.373Z,85.57
2019-06-15T07:11:49.041Z,84.64
2019-06-15T07:14:57.757Z,84.64
2019-06-15T07:18:05.025Z,84.51
2019-06-15T07:21:13.720Z,83.58
2019-06-15T07:24:22.424Z,81.65
2019-06-15T07:27:31.179Z,81.17
2019-06-15T07:30:40.015Z,81.68
2019-06-15T07:33:48.766Z,82.11
2019-06-15T07:36:57.467Z,81.96
2019-06-15T07:40:15.195Z,83.07
2019-06-15T07:43:23.961Z,84.79
2019-06-15T07:46:32.606Z,84.93
2019-06-15T07:49:41.305Z,86.20
2019-06-15T07:52:50.299Z,85.94
2019-06-15T07:56:03.291Z,85.83
2019-06-15T07:59:11.270Z,86.02
2019-06-15T08:02:19.941Z,85.33
2019-06-15T08:05:28.546Z,85.82
2019-06-15T08:08:37.323Z,85.92
2019-06-15T08:11:46.017Z,85.32
2019-06-15T08:14:54.634Z,85.42
2019-06-15T08:18:03.616Z,85.38
2019-06-15T08:21:12.513Z,85.64
2019-06-15T08:24:21.157Z,85.68
2019-06-15T08:27:29.987Z,85.46
2019-06-15T08:30:43.189Z,84.47
2019-06-15T08:33:52.037Z,84.61
2019-06-15T08:37:00.708Z,85.13
2019-06-15T08:40:11.388Z,84.75
2019-06-15T08:43:20.190Z,84.48
2019-06-15T08:46:29.007Z,84.19
2019-06-15T08:49:36.194Z,83.97
2019-06-15T08:52:44.931Z,84.04
2019-06-15T08:56:01.911Z,84.02
2019-06-15T08:59:10.422Z,84.29
2019-06-15T09:02:19.136Z,83.43
2019-06-15T09:05:27.914Z,83.49
2019-06-15T09:08:36.668Z,83.38
2019-06-15T09:11:45.309Z,83.26
2019-06-15T09:15:03.192Z,83.06
2019-06-15T09:18:12.160Z,82.54
2019-06-15T09:21:20.870Z,82.37
2019-06-15T09:24:30.020Z,82.42
2019-06-15T09:27:47.963Z,82.33
2019-06-15T09:30:56.664Z,82.43
2019-06-15T09:34:18.089Z,81.97
2019-06-15T09:37:15.819Z,81.83
2019-06-15T09:40:24.910Z,82.54
2019-06-15T09:43:34.006Z,81.60
2019-06-15T09:46:52.016Z,82.00
2019-06-15T09:50:00.793Z,82.06
2019-06-15T09:53:18.975Z,81.96
2019-06-15T09:56:27.677Z,81.20
2019-06-15T09:59:38.364Z,80.87
2019-06-15T10:02:47.256Z,80.68
2019-06-15T10:06:06.078Z,80.71
2019-06-15T10:09:14.823Z,81.02
2019-06-15T10:12:23.570Z,80.64
2019-06-15T10:15:32.264Z,80.43
2019-06-15T10:18:40.988Z,80.15
2019-06-15T10:21:59.078Z,80.92
2019-06-15T10:25:17.224Z,81.23
2019-06-15T10:28:35.650Z,81.28
2019-06-15T10:31:53.782Z,80.29
2019-06-15T10:35:02.475Z,80.13
2019-06-15T10:38:11.427Z,79.21
2019-06-15T10:41:20.133Z,77.71
2019-06-15T10:44:29.497Z,76.66
2019-06-15T10:47:38.308Z,76.82
2019-06-15T10:50:49.192Z,76.83
2019-06-15T10:53:59.918Z,77.20
2019-06-15T10:57:08.412Z,76.98
2019-06-15T11:00:19.366Z,76.57
2019-06-15T11:03:28.075Z,77.38
2019-06-15T11:06:36.867Z,77.73
2019-06-15T11:09:45.616Z,77.52
2019-06-15T11:12:54.226Z,78.26
2019-06-15T11:16:02.912Z,76.89
2019-06-15T11:19:11.547Z,76.97
2019-06-15T11:22:20.176Z,76.57
2019-06-15T11:25:28.814Z,76.81
2019-06-15T11:28:37.575Z,77.32
2019-06-15T11:31:46.277Z,77.47
2019-06-15T11:35:04.237Z,77.54
2019-06-15T11:38:22.457Z,77.22
2019-06-15T11:41:31.133Z,77.37
2019-06-15T11:44:39.776Z,77.44
2019-06-15T11:47:48.576Z,76.38
2019-06-15T11:50:57.196Z,76.83
2019-06-15T11:54:06.304Z,76.61
2019-06-15T11:57:15.034Z,76.68
2019-06-15T12:00:31.883Z,77.64
2019-06-15T12:03:40.597Z,76.26
2019-06-15T12:06:49.263Z,77.50
2019-06-15T12:09:57.988Z,78.06
2019-06-15T12:13:07.798Z,78.22
2019-06-15T12:16:16.543Z,78.63
2019-06-15T12:19:34.365Z,79.94
2019-06-15T12:22:43.109Z,81.00
2019-06-15T12:25:51.838Z,80.68
2019-06-15T12:29:00.526Z,80.54
2019-06-15T12:32:09.136Z,79.64
2019-06-15T12:35:17.773Z,77.51
2019-06-15T12:38:26.424Z,78.12
2019-06-15T12:41:35.155Z,77.80
2019-06-15T12:44:43.790Z,77.79
2019-06-15T12:47:52.555Z,77.23
2019-06-15T12:51:01.441Z,76.64
2019-06-15T12:54:10.482Z,78.18
2019-06-15T12:57:19.184Z,78.63
2019-06-15T13:00:36.042Z,79.14
2019-06-15T13:03:44.724Z,80.22
2019-06-15T13:06:53.544Z,80.02
2019-06-15T13:10:02.283Z,78.60
2019-06-15T13:13:11.370Z,78.31
2019-06-15T13:16:20.079Z,78.68
2019-06-15T13:19:28.751Z,78.78
2019-06-15T13:22:37.585Z,78.50
2019-06-15T13:25:46.734Z,78.45
2019-06-15T13:28:55.354Z,78.21
2019-06-15T13:32:04.184Z,77.83
2019-06-15T13:35:12.939Z,76.83
2019-06-15T13:38:21.714Z,77.05
2019-06-15T13:41:31.153Z,77.03
2019-06-15T13:44:39.810Z,77.29
2019-06-15T13:47:48.458Z,76.25
2019-06-15T13:50:57.103Z,75.76
2019-06-15T13:54:05.849Z,76.14
2019-06-15T13:57:14.517Z,76.32
2019-06-15T14:00:23.524Z,76.22
2019-06-15T14:03:32.272Z,76.81
2019-06-15T14:06:40.909Z,76.38
2019-06-15T14:09:49.620Z,75.87
2019-06-15T14:12:58.262Z,74.48
2019-06-15T14:16:07.184Z,73.54
2019-06-15T14:19:16.884Z,73.61
2019-06-15T14:22:25.656Z,71.24
2019-06-15T14:25:34.379Z,71.21
2019-06-15T14:28:43.021Z,70.47
2019-06-15T14:31:52.079Z,69.24
2019-06-15T14:35:00.803Z,69.49
2019-06-15T14:38:09.604Z,69.69
2019-06-15T14:41:18.209Z,69.65
2019-06-15T14:44:26.979Z,67.98
2019-06-15T14:47:35.779Z,66.57
2019-06-15T14:50:44.382Z,66.52
2019-06-15T14:53:56.293Z,66.80
2019-06-15T14:57:03.791Z,67.43
2019-06-15T15:00:13.849Z,66.08
2019-06-15T15:03:22.580Z,66.37
2019-06-15T15:06:31.192Z,65.70
2019-06-15T15:09:39.811Z,66.30
2019-06-15T15:12:47.033Z,66.08
2019-06-15T15:15:57.003Z,64.49
2019-06-15T15:19:16.627Z,64.34
2019-06-15T15:22:26.558Z,64.68
2019-06-15T15:25:36.772Z,63.99
2019-06-15T15:28:47.044Z,63.86
2019-06-15T15:31:57.434Z,63.16
2019-06-15T15:35:06.614Z,63.65
2019-06-15T15:38:15.475Z,63.54
2019-06-15T15:41:26.430Z,63.34
2019-06-15T15:44:35.966Z,62.72
2019-06-15T15:47:44.630Z,61.38
2019-06-15T15:50:53.572Z,61.40
2019-06-15T15:54:02.752Z,60.58
2019-06-15T15:57:11.612Z,61.69
2019-06-15T16:00:31.437Z,60.08
2019-06-15T16:03:40.054Z,60.23
2019-06-15T16:06:48.958Z,60.96
2019-06-15T16:09:57.883Z,60.71
2019-06-15T16:13:06.813Z,60.56
2019-06-15T16:16:16.403Z,61.11
2019-06-15T16:19:26.280Z,60.58
2019-06-15T16:22:36.969Z,60.22
2019-06-15T16:25:56.247Z,60.87
2019-06-15T16:29:06.915Z,61.00
2019-06-15T16:32:26.396Z,60.70
2019-06-15T16:35:36.076Z,60.96
2019-06-15T16:38:47.012Z,61.14
2019-06-15T16:41:56.197Z,61.02
2019-06-15T16:45:06.791Z,61.54
2019-06-15T16:48:26.134Z,61.03
2019-06-15T16:51:36.154Z,61.40
2019-06-15T16:54:47.076Z,60.97
2019-06-15T16:57:56.618Z,61.36
2019-06-15T17:01:06.543Z,62.03
2019-06-15T17:04:16.591Z,61.97
2019-06-15T17:07:26.270Z,61.99
2019-06-15T17:10:40.772Z,62.03
2019-06-15T17:13:49.694Z,62.99
2019-06-15T17:16:58.492Z,64.37
2019-06-15T17:20:08.932Z,64.90
2019-06-15T17:23:17.880Z,66.43
2019-06-15T17:26:26.621Z,67.50
2019-06-15T17:29:35.224Z,70.07
2019-06-15T17:32:43.975Z,70.79
2019-06-15T17:35:59.914Z,71.25
2019-06-15T17:39:03.151Z,71.48
2019-06-15T17:42:12.036Z,71.24
2019-06-15T17:45:20.877Z,70.07
2019-06-15T17:48:29.638Z,71.24
2019-06-15T17:51:38.479Z,70.76
2019-06-15T17:54:46.710Z,69.53
2019-06-15T17:57:57.688Z,69.95
2019-06-15T18:01:06.541Z,68.98
2019-06-15T18:04:37.241Z,68.74
2019-06-15T18:07:43.685Z,68.78
2019-06-15T18:10:52.380Z,68.54
2019-06-15T18:14:01.160Z,67.75
2019-06-15T18:17:10.540Z,67.75
2019-06-15T18:20:30.167Z,66.60
2019-06-15T18:23:48.345Z,66.68
2019-06-15T18:26:59.943Z,66.46
2019-06-15T18:30:08.665Z,67.25
2019-06-15T18:33:17.480Z,67.11
2019-06-15T18:36:26.672Z,66.99
2019-06-15T18:39:36.907Z,66.51
2019-06-15T18:42:46.432Z,66.62
2019-06-15T18:45:56.810Z,66.60
2019-06-15T18:49:06.717Z,66.44
2019-06-15T18:52:17.134Z,65.57
2019-06-15T18:55:26.906Z,65.82
2019-06-15T18:58:37.241Z,66.55
2019-06-15T19:01:46.949Z,66.34
2019-06-15T19:04:56.635Z,67.24
2019-06-15T19:08:06.578Z,67.04
2019-06-15T19:11:16.348Z,66.35
2019-06-15T19:14:24.248Z,66.61
2019-06-15T19:17:33.069Z,67.24
2019-06-15T19:20:41.718Z,66.95
2019-06-15T19:23:59.533Z,67.07
2019-06-15T19:27:08.260Z,67.45
2019-06-15T19:30:17.195Z,67.90
2019-06-15T19:33:26.790Z,68.29
2019-06-15T19:36:36.668Z,68.55
2019-06-15T19:39:46.400Z,68.56
2019-06-15T19:42:57.063Z,67.96
2019-06-15T19:46:06.754Z,68.55
2019-06-15T19:49:17.099Z,69.01
2019-06-15T19:52:26.057Z,68.68
2019-06-15T19:55:36.444Z,68.67
2019-06-15T19:58:46.146Z,70.06
2019-06-15T20:02:06.650Z,69.69
2019-06-15T20:05:15.551Z,69.77
2019-06-15T20:08:26.498Z,70.34
2019-06-15T20:11:36.851Z,70.61
2019-06-15T20:14:46.412Z,70.93
2019-06-15T20:17:56.954Z,71.40
2019-06-15T20:21:07.322Z,70.20
2019-06-15T20:24:19.049Z,69.87
2019-06-15T20:27:27.152Z,70.30
2019-06-15T20:30:36.968Z,70.32
2019-06-15T20:33:46.727Z,70.54
2019-06-15T20:37:04.920Z,69.89
2019-06-15T20:40:16.377Z,69.67
2019-06-15T20:43:33.621Z,70.12
2019-06-15T20:46:42.280Z,70.08
2019-06-15T20:49:51.072Z,70.25
2019-06-15T20:52:59.882Z,69.98
2019-06-15T20:56:08.563Z,70.08
2019-06-15T20:59:17.304Z,70.23
2019-06-15T21:02:26.980Z,70.73
2019-06-15T21:05:41.022Z,70.89
2019-06-15T21:08:47.015Z,70.72
2019-06-15T21:11:55.929Z,70.47
2019-06-15T21:15:07.137Z,70.25
2019-06-15T21:18:16.594Z,70.45
2019-06-15T21:21:27.502Z,71.01
2019-06-15T21:24:37.327Z,71.72
2019-06-15T21:27:47.438Z,71.42
2019-06-15T21:30:56.667Z,71.26
2019-06-15T21:34:06.822Z,71.05
2019-06-15T21:37:16.840Z,71.15
2019-06-15T21:40:27.398Z,71.16
2019-06-15T21:43:36.431Z,70.79
2019-06-15T21:46:46.851Z,71.11
2019-06-15T21:49:56.057Z,71.57
2019-06-15T21:53:06.958Z,71.46
2019-06-15T21:59:17.762Z,70.92
2019-06-15T22:02:26.987Z,71.04
2019-06-15T22:05:36.871Z,71.26
2019-06-15T22:08:44.047Z,71.17
2019-06-15T22:11:52.903Z,70.58
2019-06-15T22:15:01.860Z,70.53
2019-06-15T22:18:10.766Z,70.29
2019-06-15T22:21:19.587Z,70.11
2019-06-15T22:24:28.524Z,69.99
2019-06-15T22:27:37.128Z,70.25
2019-06-15T22:30:46.274Z,69.70
2019-06-15T22:33:56.654Z,69.81
2019-06-15T22:37:06.912Z,69.86
2019-06-15T22:40:16.663Z,69.62
2019-06-15T22:43:27.329Z,69.92
2019-06-15T22:46:36.056Z,69.64
2019-06-15T22:49:46.780Z,69.65
2019-06-15T22:52:56.465Z,69.24
2019-06-15T22:56:06.598Z,69.48
2019-06-15T22:59:16.914Z,69.22
2019-06-15T23:02:38.504Z,69.11
2019-06-15T23:05:47.359Z,69.01
2019-06-15T23:08:56.608Z,68.86
2019-06-15T23:12:07.190Z,68.41
2019-06-15T23:15:17.456Z,68.72
2019-06-15T23:18:26.371Z,68.97
2019-06-15T23:21:37.326Z,68.74
2019-06-15T23:24:46.810Z,69.11
2019-06-15T23:27:56.427Z,68.97
2019-06-15T23:31:18.704Z,69.58
2019-06-15T23:34:27.606Z,69.82
2019-06-15T23:37:37.569Z,69.86
2019-06-15T23:40:46.746Z,69.63
2019-06-15T23:43:55.972Z,70.11
2019-06-15T23:47:04.846Z,70.05
2019-06-15T23:50:13.538Z,70.35
2019-06-15T23:53:43.013Z,70.77
2019-06-15T23:56:52.310Z,70.74
